createdAt,value
2022-12-22T00:00:02.284Z,33.37
2022-12-22T00:02:48.031Z,35.80
2022-12-22T00:05:35.053Z,32.63
2022-12-22T00:08:21.066Z,34.57
2022-12-22T00:11:08.099Z,34.10
2022-12-22T00:13:54.330Z,32.77
2022-12-22T00:16:40.473Z,31.00
2022-12-22T00:19:31.923Z,33.67
2022-12-22T00:22:20.337Z,33.03
2022-12-22T00:25:05.748Z,35.23
2022-12-22T00:27:52.454Z,32.73
2022-12-22T00:30:45.674Z,29.97
2022-12-22T00:33:35.016Z,34.77
2022-12-22T00:36:21.502Z,32.83
2022-12-22T00:39:06.816Z,31.40
2022-12-22T00:41:52.376Z,35.77
2022-12-22T00:44:38.994Z,33.00
2022-12-22T00:47:24.538Z,32.33
2022-12-22T00:50:09.524Z,32.30
2022-12-22T00:52:55.458Z,33.53
2022-12-22T00:55:48.313Z,33.63
2022-12-22T00:58:37.303Z,33.77
2022-12-22T01:01:24.540Z,30.63
2022-12-22T01:04:09.774Z,32.53
2022-12-22T01:06:55.827Z,34.50
2022-12-22T01:09:41.805Z,31.67
2022-12-22T01:12:31.844Z,33.23
2022-12-22T01:15:16.971Z,36.07
2022-12-22T01:18:03.851Z,33.93
2022-12-22T01:20:50.326Z,32.70
2022-12-22T01:23:35.780Z,34.23
2022-12-22T01:26:21.350Z,32.27
2022-12-22T01:29:06.727Z,31.37
2022-12-22T01:31:52.018Z,32.37
2022-12-22T01:34:38.826Z,32.47
2022-12-22T01:37:24.464Z,33.60
2022-12-22T01:40:09.872Z,33.37
2022-12-22T01:42:56.475Z,32.37
2022-12-22T01:45:44.642Z,32.37
2022-12-22T01:48:31.461Z,31.33
2022-12-22T01:51:21.515Z,37.33
2022-12-22T01:54:07.487Z,35.50
2022-12-22T01:56:52.899Z,33.67
2022-12-22T01:59:37.944Z,39.67
2022-12-22T02:02:25.349Z,32.13
2022-12-22T02:05:12.300Z,33.27
2022-12-22T02:08:14.801Z,34.00
2022-12-22T02:11:27.742Z,31.43
2022-12-22T02:14:29.681Z,32.17
2022-12-22T02:17:24.395Z,32.63
2022-12-22T02:20:32.967Z,30.70
2022-12-22T02:23:29.762Z,32.33
2022-12-22T02:26:20.283Z,31.87
2022-12-22T02:29:08.383Z,30.07
2022-12-22T02:31:55.211Z,31.43
2022-12-22T02:34:40.707Z,33.73
2022-12-22T02:37:33.446Z,30.63
2022-12-22T02:40:24.731Z,31.23
2022-12-22T02:43:21.787Z,30.97
2022-12-22T02:46:20.149Z,31.20
2022-12-22T02:49:11.984Z,30.87
2022-12-22T02:52:07.617Z,31.23
2022-12-22T02:54:53.443Z,32.27
2022-12-22T02:57:39.221Z,31.37
2022-12-22T03:00:26.864Z,29.30
2022-12-22T03:03:13.874Z,27.70
2022-12-22T03:05:59.454Z,30.97
2022-12-22T03:08:45.029Z,27.97
2022-12-22T03:11:30.772Z,28.20
2022-12-22T03:14:16.003Z,22.27
2022-12-22T03:17:01.539Z,25.50
2022-12-22T03:19:48.327Z,26.40
2022-12-22T03:22:33.778Z,23.77
2022-12-22T03:25:19.179Z,26.43
2022-12-22T03:27:47.128Z,28.53
2022-12-22T03:30:15.168Z,25.93
2022-12-22T03:32:43.069Z,22.13
2022-12-22T03:35:12.552Z,24.40
2022-12-22T03:37:40.446Z,27.57
2022-12-22T03:40:09.838Z,25.83
2022-12-22T03:42:55.414Z,24.57
2022-12-22T03:45:40.958Z,24.57
2022-12-22T03:48:08.893Z,24.13
2022-12-22T03:50:38.360Z,25.17
2022-12-22T03:53:06.926Z,21.60
2022-12-22T03:55:34.825Z,22.83
2022-12-22T03:58:02.740Z,23.53
2022-12-22T04:00:30.712Z,24.23
2022-12-22T04:02:59.097Z,24.23
2022-12-22T04:05:27.185Z,23.87
2022-12-22T04:07:56.510Z,25.03
2022-12-22T04:10:42.186Z,20.87
2022-12-22T04:13:10.110Z,23.40
2022-12-22T04:15:38.150Z,23.50
2022-12-22T04:18:06.351Z,23.40
2022-12-22T04:20:34.303Z,22.23
2022-12-22T04:23:04.427Z,21.83
2022-12-22T04:25:32.366Z,22.37
2022-12-22T04:28:00.247Z,24.20
2022-12-22T04:30:28.141Z,25.40
2022-12-22T04:32:56.114Z,22.57
2022-12-22T04:35:24.031Z,21.30
2022-12-22T04:37:52.002Z,22.53
2022-12-22T04:40:21.280Z,20.90
2022-12-22T04:42:49.204Z,22.03
2022-12-22T04:45:17.340Z,24.33
2022-12-22T04:47:45.367Z,23.10
2022-12-22T04:50:13.296Z,23.47
2022-12-22T04:52:41.191Z,21.40
2022-12-22T04:55:10.422Z,23.00
2022-12-22T04:57:41.135Z,21.70
2022-12-22T05:00:10.715Z,22.80
2022-12-22T05:02:38.945Z,22.83
2022-12-22T05:05:07.957Z,20.53
2022-12-22T05:07:36.096Z,21.60
2022-12-22T05:10:04.586Z,20.20
2022-12-22T05:12:49.920Z,22.37
2022-12-22T05:15:19.266Z,18.83
2022-12-22T05:17:47.206Z,21.47
2022-12-22T05:20:15.182Z,22.37
2022-12-22T05:22:43.081Z,19.43
2022-12-22T05:25:11.644Z,21.87
2022-12-22T05:27:39.633Z,20.23
2022-12-22T05:30:08.913Z,21.03
2022-12-22T05:32:38.266Z,22.97
2022-12-22T05:35:07.490Z,20.50
2022-12-22T05:37:35.912Z,19.43
2022-12-22T05:40:04.325Z,19.83
2022-12-22T05:42:37.871Z,22.97
2022-12-22T05:45:08.538Z,21.03
2022-12-22T05:47:38.207Z,21.17
2022-12-22T05:50:07.570Z,19.53
2022-12-22T05:52:35.469Z,21.23
2022-12-22T05:55:03.592Z,17.80
2022-12-22T05:57:31.548Z,20.57
2022-12-22T05:59:59.487Z,20.47
2022-12-22T06:02:27.740Z,22.73
2022-12-22T06:04:57.138Z,20.03
2022-12-22T06:07:25.003Z,19.03
2022-12-22T06:09:52.932Z,18.47
2022-12-22T06:12:20.831Z,21.13
2022-12-22T06:14:48.767Z,21.90
2022-12-22T06:17:16.693Z,19.43
2022-12-22T06:19:44.664Z,21.17
2022-12-22T06:22:13.972Z,18.60
2022-12-22T06:24:42.076Z,23.13
2022-12-22T06:27:11.107Z,18.57
2022-12-22T06:29:39.171Z,20.43
2022-12-22T06:32:07.551Z,19.33
2022-12-22T06:34:35.474Z,19.73
2022-12-22T06:37:03.441Z,20.63
2022-12-22T06:39:32.767Z,19.33
2022-12-22T06:42:29.630Z,19.83
2022-12-22T06:44:57.531Z,20.67
2022-12-22T06:47:25.475Z,19.37
2022-12-22T06:49:53.402Z,19.30
2022-12-22T06:52:21.367Z,18.50
2022-12-22T06:54:50.667Z,17.07
2022-12-22T06:57:18.586Z,18.13
2022-12-22T06:59:49.751Z,20.70
2022-12-22T07:02:20.422Z,18.93
2022-12-22T07:04:48.500Z,19.77
2022-12-22T07:07:16.470Z,17.77
2022-12-22T07:09:44.371Z,18.13
2022-12-22T07:12:14.199Z,18.83
2022-12-22T07:14:42.199Z,17.53
2022-12-22T07:17:10.360Z,16.97
2022-12-22T07:19:38.324Z,17.87
2022-12-22T07:22:06.266Z,20.13
2022-12-22T07:24:34.175Z,19.30
2022-12-22T07:27:02.127Z,17.30
2022-12-22T07:29:31.486Z,17.60
2022-12-22T07:31:59.566Z,17.43
2022-12-22T07:34:27.471Z,17.90
2022-12-22T07:36:55.384Z,16.33
2022-12-22T07:39:23.313Z,19.53
2022-12-22T07:42:08.563Z,17.97
2022-12-22T07:44:37.885Z,15.50
2022-12-22T07:47:06.055Z,16.50
2022-12-22T07:49:51.406Z,15.13
2022-12-22T07:52:19.409Z,16.53
2022-12-22T07:54:47.469Z,17.67
2022-12-22T07:57:15.660Z,15.97
2022-12-22T07:59:44.933Z,15.60
2022-12-22T08:02:13.639Z,14.93
2022-12-22T08:04:41.681Z,14.70
2022-12-22T08:07:09.680Z,14.13
2022-12-22T08:09:37.663Z,13.90
2022-12-22T08:12:06.079Z,14.70
2022-12-22T08:14:34.046Z,13.23
2022-12-22T08:17:03.381Z,13.53
2022-12-22T08:19:32.905Z,15.77
2022-12-22T08:22:01.305Z,12.97
2022-12-22T08:24:29.260Z,13.63
2022-12-22T08:27:00.088Z,13.43
2022-12-22T08:29:32.087Z,13.17
2022-12-22T08:32:01.657Z,12.33
2022-12-22T08:34:31.455Z,12.77
2022-12-22T08:37:01.996Z,11.97
2022-12-22T08:39:34.715Z,14.53
2022-12-22T08:42:05.310Z,11.50
2022-12-22T08:44:33.244Z,12.00
2022-12-22T08:47:01.401Z,11.03
2022-12-22T08:49:30.768Z,9.93
2022-12-22T08:51:58.718Z,9.83
2022-12-22T08:54:26.671Z,9.50
2022-12-22T08:56:54.582Z,9.67
2022-12-22T08:59:22.551Z,9.33
2022-12-22T09:01:51.207Z,9.80
2022-12-22T09:04:21.821Z,10.50
2022-12-22T09:06:53.521Z,10.00
2022-12-22T09:09:23.204Z,9.00
2022-12-22T09:11:51.705Z,10.87
2022-12-22T09:14:19.671Z,10.30
2022-12-22T09:16:48.000Z,8.83
2022-12-22T09:19:15.907Z,8.53
2022-12-22T09:21:45.156Z,8.17
2022-12-22T09:24:15.982Z,8.50
2022-12-22T09:26:44.162Z,9.53
2022-12-22T09:29:15.293Z,8.57
2022-12-22T09:31:43.539Z,9.03
2022-12-22T09:34:17.715Z,9.67
2022-12-22T09:36:46.874Z,10.10
2022-12-22T09:39:17.053Z,10.00
2022-12-22T09:41:48.164Z,10.63
2022-12-22T09:44:23.779Z,8.53
2022-12-22T09:46:53.757Z,8.63
2022-12-22T09:49:22.721Z,8.80
2022-12-22T09:51:54.423Z,8.13
2022-12-22T09:54:24.534Z,6.53
2022-12-22T09:56:52.866Z,7.03
2022-12-22T09:59:22.038Z,6.07
2022-12-22T10:02:11.912Z,5.77
2022-12-22T10:04:54.240Z,7.73
2022-12-22T10:07:31.003Z,6.73
2022-12-22T10:10:05.700Z,5.13
2022-12-22T10:12:33.625Z,4.93
2022-12-22T10:15:01.577Z,4.93
2022-12-22T10:17:32.239Z,5.27
2022-12-22T10:20:21.465Z,5.33
2022-12-22T10:22:51.216Z,5.00
2022-12-22T10:25:45.092Z,5.13
2022-12-22T10:28:23.824Z,5.43
2022-12-22T10:31:10.127Z,5.67
2022-12-22T10:33:45.921Z,3.93
2022-12-22T10:36:15.792Z,4.87
2022-12-22T10:38:57.292Z,4.67
2022-12-22T10:41:29.993Z,5.97
2022-12-22T10:44:00.154Z,5.40
2022-12-22T10:46:36.166Z,5.67
2022-12-22T10:49:18.127Z,5.93
2022-12-22T10:51:48.267Z,4.77
2022-12-22T10:54:42.549Z,4.03
2022-12-22T10:57:29.696Z,4.97
2022-12-22T10:59:59.306Z,4.67
2022-12-22T11:02:34.328Z,5.37
2022-12-22T11:05:05.383Z,6.03
2022-12-22T11:07:35.393Z,4.43
2022-12-22T11:10:03.821Z,4.93
2022-12-22T11:12:46.600Z,5.67
2022-12-22T11:15:24.857Z,3.43
2022-12-22T11:18:03.154Z,3.63
2022-12-22T11:20:39.073Z,4.43
2022-12-22T11:23:15.619Z,3.87
2022-12-22T11:25:56.770Z,4.77
2022-12-22T11:28:50.321Z,5.40
2022-12-22T11:31:39.707Z,3.77
2022-12-22T11:34:21.214Z,2.43
2022-12-22T11:37:03.662Z,2.37
2022-12-22T11:39:40.545Z,3.87
2022-12-22T11:42:24.229Z,3.90
2022-12-22T11:45:07.184Z,2.97
2022-12-22T11:47:43.576Z,3.20
2022-12-22T11:50:59.616Z,4.40
2022-12-22T11:53:33.922Z,3.20
2022-12-22T11:56:14.923Z,3.30
2022-12-22T11:58:55.467Z,3.93
2022-12-22T12:01:49.608Z,3.83
2022-12-22T12:04:45.505Z,4.63
2022-12-22T12:07:26.404Z,3.50
2022-12-22T12:10:04.677Z,4.00
2022-12-22T12:12:44.042Z,3.07
2022-12-22T12:15:25.634Z,3.90
2022-12-22T12:18:14.929Z,2.87
2022-12-22T12:20:53.799Z,3.53
2022-12-22T12:23:38.116Z,4.87
2022-12-22T12:26:13.059Z,3.17
2022-12-22T12:28:54.877Z,4.97
2022-12-22T12:31:29.867Z,4.03
2022-12-22T12:34:02.193Z,2.77
2022-12-22T12:36:40.395Z,2.67
2022-12-22T12:39:17.493Z,2.80
2022-12-22T12:41:57.255Z,2.27
2022-12-22T12:44:28.833Z,3.17
2022-12-22T12:47:05.617Z,2.97
2022-12-22T12:50:25.152Z,4.67
2022-12-22T12:53:18.535Z,2.60
2022-12-22T12:56:03.438Z,6.77
2022-12-22T12:58:58.165Z,3.70
2022-12-22T13:02:00.568Z,2.33
2022-12-22T13:05:02.326Z,3.10
2022-12-22T13:08:07.260Z,4.57
2022-12-22T13:10:38.533Z,3.90
2022-12-22T13:13:06.986Z,3.87
2022-12-22T13:15:37.249Z,3.23
2022-12-22T13:18:10.564Z,5.03
2022-12-22T13:20:39.162Z,4.20
2022-12-22T13:23:14.487Z,2.60
2022-12-22T13:25:49.820Z,2.80
2022-12-22T13:28:19.684Z,3.87
2022-12-22T13:30:49.756Z,3.87
2022-12-22T13:33:21.914Z,4.57
2022-12-22T13:35:58.245Z,4.80
2022-12-22T13:38:29.298Z,3.57
2022-12-22T13:40:59.914Z,3.93
2022-12-22T13:43:29.636Z,5.90
2022-12-22T13:46:00.070Z,3.23
2022-12-22T13:48:35.913Z,4.63
2022-12-22T13:51:14.803Z,4.57
2022-12-22T13:54:07.633Z,5.17
2022-12-22T13:56:40.663Z,5.53
2022-12-22T13:59:23.120Z,4.30
2022-12-22T14:01:52.080Z,3.83
2022-12-22T14:04:20.213Z,3.23
2022-12-22T14:06:48.200Z,5.40
2022-12-22T14:09:18.589Z,4.63
2022-12-22T14:11:52.794Z,5.47
2022-12-22T14:14:25.760Z,3.67
2022-12-22T14:16:56.998Z,5.30
2022-12-22T14:19:26.361Z,2.30
2022-12-22T14:22:03.578Z,5.17
2022-12-22T14:24:38.368Z,2.80
2022-12-22T14:27:17.975Z,4.93
2022-12-22T14:29:46.764Z,3.63
2022-12-22T14:32:35.677Z,2.97
2022-12-22T14:35:03.912Z,3.67
2022-12-22T14:37:33.085Z,2.73
2022-12-22T14:40:01.312Z,4.13
2022-12-22T14:42:32.285Z,4.23
2022-12-22T14:45:00.268Z,3.30
2022-12-22T14:47:28.251Z,4.30
2022-12-22T14:49:59.811Z,3.47
2022-12-22T14:52:37.627Z,4.20
2022-12-22T14:55:07.612Z,3.70
2022-12-22T14:57:40.895Z,3.67
2022-12-22T15:00:30.880Z,3.53
2022-12-22T15:03:00.804Z,4.97
2022-12-22T15:05:30.140Z,4.37
2022-12-22T15:08:08.537Z,4.00
2022-12-22T15:10:41.260Z,4.03
2022-12-22T15:13:16.397Z,4.67
2022-12-22T15:15:44.359Z,4.50
2022-12-22T15:18:15.885Z,4.13
2022-12-22T15:20:43.933Z,2.70
2022-12-22T15:23:14.768Z,4.03
2022-12-22T15:25:42.806Z,3.17
2022-12-22T15:28:12.301Z,3.50
2022-12-22T15:30:40.602Z,2.73
2022-12-22T15:33:13.558Z,6.73
2022-12-22T15:35:42.981Z,2.63
2022-12-22T15:38:14.762Z,4.77
2022-12-22T15:40:42.981Z,1.60
2022-12-22T15:43:36.546Z,3.37
2022-12-22T15:46:00.903Z,2.73
2022-12-22T15:48:33.229Z,2.23
2022-12-22T15:51:03.543Z,2.80
2022-12-22T15:53:33.600Z,2.47
2022-12-22T15:56:02.205Z,2.47
2022-12-22T15:58:36.445Z,2.70
2022-12-22T16:01:04.497Z,1.70
2022-12-22T16:03:32.578Z,2.10
2022-12-22T16:06:00.774Z,2.57
2022-12-22T16:08:31.868Z,2.13
2022-12-22T16:11:00.195Z,2.77
2022-12-22T16:13:29.462Z,3.13
2022-12-22T16:15:59.594Z,2.30
2022-12-22T16:18:27.609Z,1.90
2022-12-22T16:20:56.676Z,1.87
2022-12-22T16:23:26.946Z,2.27
2022-12-22T16:26:02.097Z,3.33
2022-12-22T16:28:30.791Z,2.30
2022-12-22T16:31:01.300Z,2.67
2022-12-22T16:33:29.567Z,2.67
2022-12-22T16:35:57.456Z,2.40
2022-12-22T16:38:25.368Z,2.83
2022-12-22T16:40:54.336Z,2.30
2022-12-22T16:46:17.139Z,3.37
2022-12-22T16:48:47.603Z,4.73
2022-12-22T16:51:19.681Z,3.00
2022-12-22T16:53:47.988Z,3.00
2022-12-22T16:56:20.186Z,4.17
2022-12-22T16:58:48.832Z,4.73
2022-12-22T17:01:33.044Z,3.27
2022-12-22T17:04:05.095Z,3.70
2022-12-22T17:06:33.365Z,3.70
2022-12-22T17:09:03.040Z,5.07
2022-12-22T17:11:32.764Z,4.10
2022-12-22T17:14:05.951Z,3.27
2022-12-22T17:16:35.450Z,4.40
2022-12-22T17:19:03.462Z,4.70
2022-12-22T17:21:31.464Z,3.37
2022-12-22T17:24:04.191Z,2.97
2022-12-22T17:26:35.044Z,4.17
2022-12-22T17:29:03.252Z,2.60
2022-12-22T17:31:31.410Z,2.57
2022-12-22T17:34:00.797Z,2.80
2022-12-22T17:36:35.227Z,2.87
2022-12-22T17:39:04.097Z,3.50
2022-12-22T17:41:32.387Z,3.40
2022-12-22T17:44:01.103Z,3.67
2022-12-22T17:46:29.470Z,3.57
2022-12-22T17:48:57.400Z,3.07
2022-12-22T17:51:29.390Z,2.77
2022-12-22T17:53:59.852Z,2.60
2022-12-22T17:56:29.871Z,3.30
2022-12-22T17:58:57.840Z,4.77
2022-12-22T18:01:28.212Z,3.50
2022-12-22T18:03:57.757Z,4.30
2022-12-22T18:06:32.257Z,2.83
2022-12-22T18:09:01.119Z,3.47
2022-12-22T18:11:29.358Z,3.33
2022-12-22T18:13:58.259Z,3.80
2022-12-22T18:16:26.174Z,3.47
2022-12-22T18:18:54.173Z,2.63
2022-12-22T18:21:23.623Z,3.30
2022-12-22T18:23:53.438Z,3.33
2022-12-22T18:26:23.525Z,4.07
2022-12-22T18:28:52.364Z,2.20
2022-12-22T18:31:20.772Z,3.23
2022-12-22T18:33:49.104Z,4.37
2022-12-22T18:36:22.811Z,3.30
2022-12-22T18:38:52.523Z,7.40
2022-12-22T18:41:24.392Z,2.90
2022-12-22T18:43:52.564Z,2.83
2022-12-22T18:46:21.221Z,5.10
2022-12-22T18:48:49.747Z,2.30
2022-12-22T18:51:22.247Z,6.23
2022-12-22T18:53:53.682Z,3.57
2022-12-22T18:56:21.801Z,4.70
2022-12-22T18:58:50.058Z,4.70
2022-12-22T19:01:21.661Z,4.53
2022-12-22T19:03:51.084Z,5.93
2022-12-22T19:06:21.463Z,5.13
2022-12-22T19:08:49.751Z,7.33
2022-12-22T19:11:24.885Z,7.77
2022-12-22T19:13:53.795Z,6.03
2022-12-22T19:16:27.015Z,5.43
2022-12-22T19:18:57.135Z,5.43
2022-12-22T19:21:25.045Z,7.77
2022-12-22T19:23:53.080Z,7.63
2022-12-22T19:26:24.309Z,6.17
2022-12-22T19:28:55.207Z,6.83
2022-12-22T19:31:25.885Z,5.93
2022-12-22T19:33:54.718Z,7.10
2022-12-22T19:36:25.663Z,7.20
2022-12-22T19:39:02.544Z,6.77
2022-12-22T19:41:39.727Z,6.07
2022-12-22T19:44:17.326Z,3.73
2022-12-22T19:46:45.695Z,3.33
2022-12-22T19:49:16.809Z,7.40
2022-12-22T19:51:44.843Z,5.60
2022-12-22T19:54:12.896Z,4.57
2022-12-22T19:56:43.431Z,3.83
2022-12-22T19:59:28.089Z,5.23
2022-12-22T20:01:58.222Z,4.50
2022-12-22T20:04:26.592Z,7.00
2022-12-22T20:06:54.624Z,6.63
2022-12-22T20:09:22.554Z,4.83
2022-12-22T20:11:51.947Z,4.97
2022-12-22T20:14:20.550Z,6.70
2022-12-22T20:16:48.560Z,7.00
2022-12-22T20:19:16.976Z,6.63
2022-12-22T20:21:45.452Z,5.40
2022-12-22T20:24:21.998Z,4.77
2022-12-22T20:26:54.474Z,6.77
2022-12-22T20:29:25.100Z,6.90
2022-12-22T20:31:53.226Z,6.53
2022-12-22T20:34:21.272Z,5.37
2022-12-22T20:36:49.221Z,7.17
2022-12-22T20:39:20.429Z,8.23
2022-12-22T20:41:52.943Z,5.73
2022-12-22T20:44:23.599Z,5.60
2022-12-22T20:46:51.657Z,5.47
2022-12-22T20:49:19.573Z,5.47
2022-12-22T20:51:47.702Z,5.93
2022-12-22T20:54:16.095Z,7.83
2022-12-22T20:56:45.424Z,6.30
2022-12-22T20:59:16.416Z,5.70
2022-12-22T21:01:46.736Z,5.53
2022-12-22T21:04:15.185Z,4.20
2022-12-22T21:06:47.564Z,6.43
2022-12-22T21:09:16.181Z,12.73
2022-12-22T21:11:44.477Z,5.40
2022-12-22T21:14:13.699Z,5.93
2022-12-22T21:16:42.558Z,12.47
2022-12-22T21:19:17.992Z,6.00
2022-12-22T21:21:46.029Z,13.73
2022-12-22T21:24:13.946Z,12.43
2022-12-22T21:26:45.524Z,9.30
2022-12-22T21:29:17.542Z,8.67
2022-12-22T21:31:45.843Z,6.20
2022-12-22T21:34:15.180Z,9.40
2022-12-22T21:36:45.511Z,18.93
2022-12-22T21:39:23.813Z,10.53
2022-12-22T21:42:05.159Z,15.60
2022-12-22T21:44:35.253Z,12.00
2022-12-22T21:47:04.023Z,14.03
2022-12-22T21:49:34.643Z,13.03
2022-12-22T21:52:02.561Z,9.40
2022-12-22T21:54:30.522Z,9.30
2022-12-22T21:56:58.548Z,8.77
2022-12-22T21:59:26.504Z,11.37
2022-12-22T22:01:55.701Z,9.43
2022-12-22T22:04:24.282Z,11.47
2022-12-22T22:06:53.682Z,7.70
2022-12-22T22:09:21.586Z,7.17
2022-12-22T22:12:07.094Z,6.97
2022-12-22T22:14:35.046Z,5.77
2022-12-22T22:17:03.000Z,7.73
2022-12-22T22:19:31.019Z,7.40
2022-12-22T22:22:00.300Z,8.33
2022-12-22T22:24:28.516Z,8.97
2022-12-22T22:26:56.600Z,7.27
2022-12-22T22:29:24.543Z,8.67
2022-12-22T22:31:52.471Z,9.03
2022-12-22T22:34:20.448Z,9.97
2022-12-22T22:36:48.389Z,9.73
2022-12-22T22:39:17.692Z,8.23
2022-12-22T22:41:45.619Z,7.80
2022-12-22T22:44:13.669Z,7.57
2022-12-22T22:46:41.830Z,9.87
2022-12-22T22:49:10.097Z,6.70
2022-12-22T22:51:38.062Z,9.53
2022-12-22T22:54:06.066Z,11.07
2022-12-22T22:56:35.490Z,11.40
2022-12-22T22:59:03.855Z,11.50
2022-12-22T23:01:32.197Z,9.07
2022-12-22T23:04:00.444Z,9.33
2022-12-22T23:06:28.482Z,8.77
2022-12-22T23:08:56.401Z,11.23
2022-12-22T23:11:24.389Z,11.50
2022-12-22T23:13:54.867Z,9.00
2022-12-22T23:16:24.419Z,7.93
2022-12-22T23:18:54.033Z,8.03
2022-12-22T23:21:22.914Z,12.40
2022-12-22T23:23:54.646Z,7.43
2022-12-22T23:26:22.693Z,7.23
2022-12-22T23:28:50.595Z,6.43
2022-12-22T23:31:20.107Z,8.70
2022-12-22T23:33:48.171Z,9.97
2022-12-22T23:36:16.210Z,9.33
2022-12-22T23:38:44.263Z,8.03
2022-12-22T23:41:14.145Z,8.93
2022-12-22T23:43:42.337Z,9.67
2022-12-22T23:46:12.045Z,8.77
2022-12-22T23:48:41.611Z,7.47
2022-12-22T23:51:11.022Z,10.40
2022-12-22T23:53:39.432Z,11.67
2022-12-22T23:56:07.847Z,10.03
2022-12-22T23:58:36.018Z,9.90
